Time;durP1;ratioP1;P1;durP2;ratioP2;P2;SDS_P1;SDS_P2;PMS_P1;PMS_P2;Temp;Humidity;BMP_temperature;BMP_pressure;BME280_temperature;BME280_humidity;BME280_pressure;Samples;Min_cycle;Max_cycle;Signal;HPM_P1;HPM_P2
2022/11/07 00:01:29;;;;;;;4.10;3.13;;;11.20;1.00;;;;;;5044977;28;20277;-74
2022/11/07 00:03:54;;;;;;;4.70;2.80;;;11.30;1.00;;;;;;5040916;28;20292;-74
2022/11/07 00:06:20;;;;;;;3.33;3.00;;;11.30;1.00;;;;;;5038345;28;20591;-74
2022/11/07 00:08:46;;;;;;;3.07;2.70;;;11.30;1.00;;;;;;5040823;28;20247;-74
2022/11/07 00:11:11;;;;;;;3.33;2.80;;;11.50;1.00;;;;;;5046195;28;20455;-75
2022/11/07 00:13:37;;;;;;;3.33;2.97;;;11.20;1.00;;;;;;5048288;28;20208;-75
2022/11/07 00:16:05;;;;;;;4.10;2.83;;;11.30;1.00;;;;;;5047064;28;20181;-75
2022/11/07 00:18:32;;;;;;;6.00;3.10;;;11.30;1.00;;;;;;5048501;28;20644;-74
2022/11/07 00:21:08;;;;;;;6.37;3.23;;;11.40;1.00;;;;;;5047938;28;20547;-74
2022/11/07 00:23:35;;;;;;;3.27;2.63;;;11.40;1.00;;;;;;5038581;28;20476;-74
2022/11/07 00:26:05;;;;;;;3.23;2.50;;;11.50;1.00;;;;;;5040661;28;20414;-74
2022/11/07 00:28:41;;;;;;;6.73;2.90;;;11.50;1.00;;;;;;5042330;28;20467;-74
2022/11/07 00:31:08;;;;;;;2.70;2.33;;;11.50;1.00;;;;;;5039661;28;20868;-74
2022/11/07 00:33:33;;;;;;;4.00;2.90;;;11.50;1.00;;;;;;5046528;28;20840;-74
2022/11/07 00:35:59;;;;;;;2.90;2.50;;;11.50;1.00;;;;;;5041167;28;20438;-76
2022/11/07 00:38:25;;;;;;;3.97;2.60;;;11.50;1.00;;;;;;5048777;28;20181;-74
2022/11/07 00:40:58;;;;;;;4.73;2.90;;;11.60;1.00;;;;;;5038651;28;20185;-74
2022/11/07 00:43:23;;;;;;;3.63;2.83;;;11.50;1.00;;;;;;5042699;28;20205;-74
2022/11/07 00:45:49;;;;;;;4.30;2.70;;;11.50;1.00;;;;;;5045186;28;21031;-74
2022/11/07 00:48:15;;;;;;;5.23;3.30;;;11.50;1.00;;;;;;5043561;28;20583;-74
2022/11/07 00:50:40;;;;;;;6.33;3.00;;;11.50;1.00;;;;;;5045690;28;20205;-74
2022/11/07 00:53:06;;;;;;;3.27;2.97;;;11.50;1.00;;;;;;5045967;28;20189;-74
2022/11/07 00:55:32;;;;;;;5.03;2.83;;;11.50;1.00;;;;;;5036506;28;20239;-74
2022/11/07 00:57:58;;;;;;;3.50;3.00;;;11.50;1.00;;;;;;5047726;28;20181;-74
2022/11/07 01:00:24;;;;;;;4.80;3.10;;;11.50;1.00;;;;;;5042891;28;20442;-74
2022/11/07 01:05:34;;;;;;;3.20;2.67;;;11.60;1.00;;;;;;5041375;28;20551;-74
2022/11/07 01:07:59;;;;;;;3.27;2.63;;;11.60;1.00;;;;;;5040371;28;20463;-75
2022/11/07 01:10:25;;;;;;;5.43;3.23;;;11.60;1.00;;;;;;5047667;28;20177;-75
2022/11/07 01:12:50;;;;;;;3.47;3.10;;;11.60;1.00;;;;;;5050131;28;20201;-75
2022/11/07 01:15:16;;;;;;;6.50;3.00;;;11.60;1.00;;;;;;5043173;28;20193;-74
2022/11/07 01:17:41;;;;;;;4.13;3.00;;;11.60;1.00;;;;;;5049768;28;20208;-74
2022/11/07 01:20:07;;;;;;;3.40;2.90;;;11.70;1.00;;;;;;5046087;28;20271;-75
2022/11/07 01:22:33;;;;;;;5.10;3.40;;;11.60;1.00;;;;;;5051520;28;20203;-74
2022/11/07 01:24:58;;;;;;;4.70;2.87;;;11.60;1.00;;;;;;5039491;28;20438;-74
2022/11/07 01:27:24;;;;;;;6.03;2.83;;;11.70;1.00;;;;;;5051395;28;20208;-74
2022/11/07 01:29:49;;;;;;;3.60;3.07;;;11.70;1.00;;;;;;5044505;28;20184;-75
2022/11/07 01:32:15;;;;;;;4.30;3.07;;;11.70;1.00;;;;;;5052125;28;20593;-75
2022/11/07 01:34:40;;;;;;;3.87;3.27;;;11.70;1.00;;;;;;5042623;28;20232;-74
2022/11/07 01:37:06;;;;;;;3.43;2.70;;;11.70;1.00;;;;;;5052416;28;20177;-75
2022/11/07 01:39:32;;;;;;;3.27;2.93;;;11.60;1.00;;;;;;5044282;28;20239;-74
2022/11/07 01:41:57;;;;;;;5.63;2.97;;;11.60;1.00;;;;;;5048455;28;20173;-75
2022/11/07 01:44:23;;;;;;;7.80;3.17;;;11.90;1.00;;;;;;5046209;28;20206;-75
2022/11/07 01:46:49;;;;;;;4.23;3.20;;;11.60;1.00;;;;;;5050613;28;20208;-75
2022/11/07 01:49:37;;;;;;;3.43;2.80;;;11.60;1.00;;;;;;5048032;28;20216;-75
2022/11/07 01:52:07;;;;;;;4.67;3.10;;;11.60;1.00;;;;;;5043511;28;20451;-75
2022/11/07 01:54:36;;;;;;;8.67;3.40;;;11.70;1.00;;;;;;5045234;28;20998;-75
2022/11/07 01:57:12;;;;;;;4.53;2.70;;;11.60;1.00;;;;;;5046336;28;20992;-75
2022/11/07 01:59:39;;;;;;;6.47;3.10;;;11.60;1.00;;;;;;5046330;28;20803;-75
2022/11/07 02:02:05;;;;;;;4.90;3.20;;;11.50;1.00;;;;;;5046742;28;20478;-75
2022/11/07 02:04:31;;;;;;;4.17;2.70;;;11.50;1.00;;;;;;5045156;28;20460;-75
2022/11/07 02:07:18;;;;;;;4.60;2.90;;;11.50;1.00;;;;;;5050367;28;20428;-75
2022/11/07 02:09:43;;;;;;;4.70;3.53;;;11.60;1.00;;;;;;5045111;28;20184;-75
2022/11/07 02:12:09;;;;;;;3.73;2.83;;;11.70;1.00;;;;;;5049334;28;20530;-74
2022/11/07 02:14:35;;;;;;;4.07;2.90;;;11.70;1.00;;;;;;5042160;28;20204;-74
2022/11/07 02:17:00;;;;;;;3.90;2.70;;;11.70;1.00;;;;;;5051577;28;20161;-75
2022/11/07 02:19:37;;;;;;;3.50;2.90;;;11.70;1.00;;;;;;5045842;28;20524;-75
2022/11/07 02:22:24;;;;;;;4.87;2.90;;;11.80;1.00;;;;;;5040755;28;20177;-74
2022/11/07 02:24:53;;;;;;;5.03;2.93;;;11.90;1.00;;;;;;5043800;28;20432;-75
2022/11/07 02:27:21;;;;;;;3.00;2.43;;;11.90;1.00;;;;;;5045421;28;20447;-75
2022/11/07 02:29:51;;;;;;;3.17;2.63;;;11.90;1.00;;;;;;5048171;28;20513;-75
2022/11/07 02:32:16;;;;;;;4.73;2.90;;;12.00;1.00;;;;;;5044125;28;20819;-75
2022/11/07 02:34:42;;;;;;;3.20;2.90;;;12.00;1.00;;;;;;5041304;28;20437;-74
2022/11/07 02:37:24;;;;;;;5.47;2.97;;;12.00;1.00;;;;;;5046410;28;20185;-74
2022/11/07 02:39:50;;;;;;;5.17;2.80;;;11.90;1.00;;;;;;5050292;28;20239;-75
2022/11/07 02:42:16;;;;;;;6.20;2.77;;;12.00;1.00;;;;;;5046415;28;20857;-74
2022/11/07 02:44:42;;;;;;;3.07;2.60;;;12.00;1.00;;;;;;5041381;28;20209;-74
2022/11/07 02:47:08;;;;;;;2.93;2.63;;;12.00;1.00;;;;;;5048419;28;20200;-75
2022/11/07 02:49:33;;;;;;;3.40;2.83;;;12.00;1.00;;;;;;5044061;28;20663;-75
2022/11/07 02:51:59;;;;;;;5.23;2.60;;;12.00;1.00;;;;;;5046376;28;20178;-75
2022/11/07 02:54:24;;;;;;;3.97;2.93;;;11.90;1.00;;;;;;5042222;28;20198;-74
2022/11/07 02:56:50;;;;;;;8.10;3.47;;;12.00;1.00;;;;;;5046114;28;20184;-75
2022/11/07 02:59:15;;;;;;;4.57;2.90;;;12.00;1.00;;;;;;5045214;28;20191;-75
2022/11/07 03:01:41;;;;;;;4.40;3.27;;;11.90;1.00;;;;;;5048388;28;20250;-74
2022/11/07 03:04:06;;;;;;;2.63;2.43;;;11.90;1.00;;;;;;5045368;28;20263;-74
2022/11/07 03:06:32;;;;;;;7.10;3.20;;;11.80;1.00;;;;;;5046672;28;20169;-74
2022/11/07 03:08:57;;;;;;;4.07;2.70;;;11.90;1.00;;;;;;5047025;28;20209;-75
2022/11/07 03:11:23;;;;;;;7.43;2.93;;;11.80;1.00;;;;;;5047566;28;20184;-75
2022/11/07 03:13:49;;;;;;;3.40;3.00;;;11.80;1.00;;;;;;5048180;28;20275;-75
2022/11/07 03:16:16;;;;;;;3.27;2.83;;;11.70;1.00;;;;;;5044949;28;20173;-74
2022/11/07 03:18:42;;;;;;;3.10;2.80;;;11.70;1.00;;;;;;5048326;28;20408;-74
2022/11/07 03:21:08;;;;;;;4.53;3.00;;;11.70;1.00;;;;;;5043256;28;20446;-75
2022/11/07 03:23:34;;;;;;;3.50;2.77;;;11.70;1.00;;;;;;5049824;28;20212;-75
2022/11/07 03:26:00;;;;;;;5.30;2.90;;;11.80;1.00;;;;;;5041208;28;20177;-74
2022/11/07 03:28:26;;;;;;;3.17;2.50;;;11.80;1.00;;;;;;5048454;28;20454;-74
2022/11/07 03:30:52;;;;;;;4.13;3.00;;;11.80;1.00;;;;;;5048847;28;20238;-76
2022/11/07 03:33:17;;;;;;;4.57;2.87;;;11.80;1.00;;;;;;5048474;28;20197;-74
2022/11/07 03:35:43;;;;;;;3.30;2.70;;;11.80;1.00;;;;;;5040398;28;20208;-75
2022/11/07 03:38:09;;;;;;;3.17;2.87;;;11.90;1.00;;;;;;5038731;28;20260;-75
2022/11/07 03:40:35;;;;;;;3.93;2.70;;;11.90;1.00;;;;;;5048204;28;20242;-75
2022/11/07 03:43:00;;;;;;;4.50;2.83;;;12.00;1.00;;;;;;5041414;28;20451;-75
2022/11/07 03:45:26;;;;;;;2.97;2.67;;;12.00;1.00;;;;;;5045392;28;20500;-75
2022/11/07 03:47:52;;;;;;;2.90;2.60;;;12.00;1.00;;;;;;5049104;28;20213;-74
2022/11/07 03:50:19;;;;;;;3.63;2.57;;;12.00;1.00;;;;;;5047393;28;20290;-74
2022/11/07 03:52:46;;;;;;;4.40;2.37;;;12.00;1.00;;;;;;5049184;28;20199;-74
2022/11/07 03:55:14;;;;;;;4.07;2.43;;;11.90;1.00;;;;;;5047785;28;20490;-74
2022/11/07 03:57:41;;;;;;;5.53;2.43;;;12.00;1.00;;;;;;5044713;28;20736;-74
2022/11/07 04:00:07;;;;;;;5.10;3.20;;;12.00;1.00;;;;;;5039624;28;20542;-74
2022/11/07 04:02:32;;;;;;;4.80;2.77;;;12.00;1.00;;;;;;5047732;28;20944;-74
2022/11/07 04:04:58;;;;;;;6.23;3.10;;;12.10;1.00;;;;;;5040415;28;20524;-74
2022/11/07 04:07:23;;;;;;;4.00;3.43;;;12.10;1.00;;;;;;5041153;28;20192;-74
2022/11/07 04:09:49;;;;;;;5.93;3.40;;;12.10;1.00;;;;;;5045591;28;20178;-74
2022/11/07 04:17:43;;;;;;;3.93;2.70;;;12.00;1.00;;;;;;5044915;28;20478;-74
2022/11/07 04:20:08;;;;;;;3.07;2.30;;;12.00;1.00;;;;;;5043062;28;20458;-75
2022/11/07 04:22:34;;;;;;;3.13;2.50;;;12.00;1.00;;;;;;5044989;28;20270;-75
2022/11/07 04:25:00;;;;;;;2.87;2.57;;;12.00;1.00;;;;;;5039158;28;20440;-74
2022/11/07 04:27:45;;;;;;;6.30;3.07;;;11.70;1.00;;;;;;5046301;28;20212;-74
2022/11/07 04:30:25;;;;;;;3.20;2.40;;;12.10;1.00;;;;;;5034583;28;20359;-74
2022/11/07 04:32:52;;;;;;;3.90;2.33;;;12.10;1.00;;;;;;5048156;28;20431;-75
2022/11/07 04:35:20;;;;;;;5.03;3.03;;;12.10;1.00;;;;;;5040258;28;20431;-74
2022/11/07 04:37:46;;;;;;;5.53;2.50;;;12.10;1.00;;;;;;5048973;28;20962;-74
2022/11/07 04:40:12;;;;;;;8.90;2.80;;;12.10;1.00;;;;;;5040356;28;20953;-75
2022/11/07 04:42:38;;;;;;;6.87;2.67;;;12.20;1.00;;;;;;5046664;28;20467;-75
2022/11/07 04:45:04;;;;;;;3.80;2.70;;;12.10;1.00;;;;;;5040519;28;20590;-75
2022/11/07 04:47:30;;;;;;;5.23;2.30;;;12.20;1.00;;;;;;5045100;28;20212;-74
2022/11/07 04:49:56;;;;;;;5.17;2.33;;;12.20;1.00;;;;;;5040449;28;20593;-74
2022/11/07 04:52:21;;;;;;;4.33;2.40;;;12.20;1.00;;;;;;5048691;28;20605;-74
2022/11/07 04:54:47;;;;;;;4.70;2.30;;;12.20;1.00;;;;;;5041152;28;20283;-75
2022/11/07 04:57:12;;;;;;;3.30;2.40;;;12.20;1.00;;;;;;5047751;28;20593;-75
2022/11/07 04:59:38;;;;;;;7.70;2.40;;;12.20;1.00;;;;;;5047625;28;20181;-74
2022/11/07 05:02:04;;;;;;;3.10;2.73;;;12.20;1.00;;;;;;5046771;28;20644;-75
2022/11/07 05:04:29;;;;;;;4.40;2.50;;;12.30;1.00;;;;;;5044912;28;20189;-74
2022/11/07 05:06:55;;;;;;;5.50;2.87;;;12.30;1.00;;;;;;5048025;28;20418;-74
2022/11/07 05:09:20;;;;;;;6.47;2.23;;;12.30;1.00;;;;;;5034910;28;20240;-75
2022/11/07 05:11:47;;;;;;;3.63;2.30;;;12.40;1.00;;;;;;5040572;28;20777;-74
2022/11/07 05:14:13;;;;;;;7.70;2.87;;;12.40;1.00;;;;;;5043121;28;20678;-75
2022/11/07 05:16:41;;;;;;;3.83;2.30;;;12.40;1.00;;;;;;5045509;28;20407;-74
2022/11/07 05:19:06;;;;;;;4.20;2.50;;;12.40;1.00;;;;;;5038160;28;20866;-75
2022/11/07 05:21:32;;;;;;;4.33;2.30;;;12.40;1.00;;;;;;5041176;28;20539;-74
2022/11/07 05:23:58;;;;;;;3.43;2.07;;;12.30;1.00;;;;;;5042425;28;20701;-74
2022/11/07 05:26:23;;;;;;;2.83;2.10;;;12.20;1.00;;;;;;5043032;28;20180;-75
2022/11/07 05:28:49;;;;;;;4.50;2.60;;;12.20;1.00;;;;;;5039796;28;20237;-74
2022/11/07 05:31:16;;;;;;;4.53;2.73;;;12.20;1.00;;;;;;5048684;28;20655;-75
2022/11/07 05:33:42;;;;;;;4.93;2.30;;;12.20;1.00;;;;;;5041405;28;20753;-74
2022/11/07 05:36:13;;;;;;;5.20;2.30;;;12.20;1.00;;;;;;5041831;28;20470;-75
2022/11/07 05:38:40;;;;;;;4.63;2.47;;;12.20;1.00;;;;;;5043902;28;20537;-75
2022/11/07 05:41:06;;;;;;;5.40;2.50;;;12.10;1.00;;;;;;5045464;28;20575;-74
2022/11/07 05:43:31;;;;;;;3.90;2.90;;;12.10;1.00;;;;;;5048000;28;20442;-74
2022/11/07 05:46:00;;;;;;;5.37;2.47;;;12.10;1.00;;;;;;5039993;28;20189;-75
2022/11/07 05:48:26;;;;;;;3.70;2.37;;;12.60;1.00;;;;;;5043964;28;20684;-75
2022/11/07 05:50:51;;;;;;;5.73;2.50;;;12.20;1.00;;;;;;5046978;28;20414;-76
2022/11/07 05:53:19;;;;;;;6.33;2.43;;;12.20;1.00;;;;;;5042173;28;20694;-74
2022/11/07 05:55:45;;;;;;;3.80;2.40;;;12.20;1.00;;;;;;5047044;28;20185;-75
2022/11/07 05:58:11;;;;;;;9.70;2.60;;;12.30;1.00;;;;;;5050550;28;20499;-74
2022/11/07 06:00:37;;;;;;;6.90;2.53;;;12.30;1.00;;;;;;5045826;28;20266;-75
2022/11/07 06:03:03;;;;;;;4.87;2.27;;;12.30;1.00;;;;;;5050835;28;21029;-74
2022/11/07 06:05:28;;;;;;;6.03;2.57;;;12.30;1.00;;;;;;5044564;28;20522;-74
2022/11/07 06:07:54;;;;;;;3.33;2.30;;;12.30;1.00;;;;;;5043466;28;20284;-74
2022/11/07 06:10:21;;;;;;;6.03;2.27;;;12.40;1.00;;;;;;5047719;28;20239;-75
2022/11/07 06:12:46;;;;;;;3.77;2.30;;;12.40;1.00;;;;;;5041642;28;20687;-75
2022/11/07 06:15:12;;;;;;;3.93;2.30;;;12.40;1.00;;;;;;5050872;28;20437;-75
2022/11/07 06:17:38;;;;;;;3.77;2.57;;;12.40;1.00;;;;;;5042219;28;20189;-76
2022/11/07 06:20:04;;;;;;;8.23;3.00;;;12.70;1.00;;;;;;5035842;28;20200;-75
2022/11/07 06:22:29;;;;;;;4.00;2.70;;;12.50;1.00;;;;;;5042026;28;20209;-75
2022/11/07 06:24:56;;;;;;;5.67;2.33;;;12.40;1.00;;;;;;5037840;28;20569;-73
2022/11/07 06:27:22;;;;;;;5.77;2.80;;;12.50;1.00;;;;;;5044871;28;20450;-74
2022/11/07 06:29:47;;;;;;;5.73;2.10;;;12.50;1.00;;;;;;5037626;28;20440;-75
2022/11/07 06:32:13;;;;;;;3.53;2.43;;;12.50;1.00;;;;;;5036545;28;20193;-75
2022/11/07 06:34:38;;;;;;;3.80;2.30;;;12.50;1.00;;;;;;5039572;28;20188;-75
2022/11/07 06:37:04;;;;;;;3.70;2.27;;;12.50;1.00;;;;;;5048543;28;20181;-75
2022/11/07 06:39:29;;;;;;;8.87;3.80;;;12.40;1.00;;;;;;5042750;28;20227;-75
2022/11/07 06:41:55;;;;;;;7.23;2.93;;;12.50;1.00;;;;;;5040995;28;20216;-75
2022/11/07 06:44:20;;;;;;;4.23;2.27;;;12.50;1.00;;;;;;5042419;28;20216;-75
2022/11/07 06:46:46;;;;;;;6.07;2.60;;;12.50;1.00;;;;;;5039128;28;20750;-75
2022/11/07 06:49:13;;;;;;;2.90;2.10;;;12.50;1.00;;;;;;5049080;28;20204;-75
2022/11/07 06:51:39;;;;;;;4.63;2.33;;;12.50;1.00;;;;;;5041067;28;20194;-75
2022/11/07 06:54:04;;;;;;;5.10;2.43;;;12.50;1.00;;;;;;5052645;28;20447;-75
2022/11/07 06:56:30;;;;;;;6.00;2.50;;;12.50;1.00;;;;;;5038942;28;20428;-75
2022/11/07 06:58:55;;;;;;;5.50;2.77;;;12.50;1.00;;;;;;5048721;28;20189;-75
2022/11/07 07:01:21;;;;;;;3.90;2.53;;;12.60;1.00;;;;;;5045579;28;20516;-75
2022/11/07 07:03:46;;;;;;;3.80;2.50;;;12.60;1.00;;;;;;5044140;28;20314;-75
2022/11/07 07:06:14;;;;;;;7.67;2.57;;;12.70;1.00;;;;;;5035766;28;20189;-75
2022/11/07 07:08:40;;;;;;;3.60;2.47;;;12.70;1.00;;;;;;5039629;28;20603;-75
2022/11/07 07:11:08;;;;;;;5.90;2.90;;;12.70;1.00;;;;;;5036169;28;20526;-75
2022/11/07 07:13:34;;;;;;;7.00;2.80;;;12.70;1.00;;;;;;5049726;28;20193;-75
2022/11/07 07:16:00;;;;;;;5.00;2.40;;;12.70;1.00;;;;;;5044505;28;20508;-74
2022/11/07 07:18:26;;;;;;;4.43;2.70;;;12.80;1.00;;;;;;5044019;28;20190;-75
2022/11/07 07:21:00;;;;;;;6.97;2.83;;;12.80;1.00;;;;;;5037531;28;20225;-74
2022/11/07 07:23:26;;;;;;;4.33;2.70;;;12.80;1.00;;;;;;5041445;28;20518;-75
2022/11/07 07:25:52;;;;;;;4.30;2.53;;;12.80;1.00;;;;;;5042777;28;20435;-75
2022/11/07 07:28:17;;;;;;;6.03;3.03;;;12.80;1.00;;;;;;5039519;28;20709;-75
2022/11/07 07:30:43;;;;;;;5.27;2.87;;;12.80;1.00;;;;;;5041956;28;20637;-76
2022/11/07 07:33:08;;;;;;;3.80;2.90;;;12.90;1.00;;;;;;5048261;28;20201;-75
2022/11/07 07:35:34;;;;;;;5.57;3.20;;;13.00;1.00;;;;;;5033924;28;20178;-75
2022/11/07 07:37:59;;;;;;;6.60;3.07;;;13.10;1.00;;;;;;5039335;28;20189;-76
2022/11/07 07:40:25;;;;;;;9.67;3.93;;;13.20;1.00;;;;;;5047297;28;20181;-75
2022/11/07 07:42:50;;;;;;;8.13;3.77;;;13.30;1.00;;;;;;5047644;28;20330;-75
2022/11/07 07:45:16;;;;;;;4.80;3.30;;;13.30;1.00;;;;;;5040891;28;20182;-75
2022/11/07 07:47:42;;;;;;;7.33;2.70;;;13.40;1.00;;;;;;5045598;28;20208;-76
2022/11/07 07:50:10;;;;;;;5.63;2.87;;;13.40;1.00;;;;;;5047766;28;20415;-76
2022/11/07 07:52:35;;;;;;;4.00;2.93;;;13.40;1.00;;;;;;5039511;28;20208;-75
2022/11/07 07:55:01;;;;;;;5.33;2.50;;;13.60;1.00;;;;;;5038659;28;20435;-80
2022/11/07 07:57:26;;;;;;;5.03;2.80;;;13.60;1.00;;;;;;5038913;28;20395;-75
2022/11/07 07:59:52;;;;;;;4.70;2.60;;;13.60;1.00;;;;;;5044161;28;20177;-75
2022/11/07 08:02:17;;;;;;;5.80;3.33;;;13.50;1.00;;;;;;5044658;28;20509;-75
2022/11/07 08:04:43;;;;;;;4.67;2.87;;;13.50;1.00;;;;;;5048079;28;20264;-75
2022/11/07 08:07:09;;;;;;;5.60;3.00;;;13.60;1.00;;;;;;5047288;28;20173;-76
2022/11/07 08:09:35;;;;;;;4.70;2.77;;;13.70;1.00;;;;;;5047384;28;20291;-76
2022/11/07 08:12:07;;;;;;;5.00;2.90;;;13.80;1.00;;;;;;5048564;28;20608;-76
2022/11/07 08:14:33;;;;;;;5.03;2.97;;;13.90;1.00;;;;;;5049871;28;20423;-76
2022/11/07 08:16:59;;;;;;;8.13;2.87;;;14.00;1.00;;;;;;5047704;28;20424;-77
2022/11/07 08:19:25;;;;;;;11.03;3.20;;;14.10;1.00;;;;;;5040234;28;20180;-75
2022/11/07 08:21:51;;;;;;;8.10;3.00;;;14.40;1.00;;;;;;5038870;28;20260;-75
2022/11/07 08:24:16;;;;;;;4.87;2.50;;;14.60;1.00;;;;;;5038581;28;20511;-75
2022/11/07 08:26:42;;;;;;;3.73;2.47;;;14.60;1.00;;;;;;5044955;28;20178;-76
2022/11/07 08:29:07;;;;;;;7.00;2.90;;;14.60;1.00;;;;;;5043546;28;20664;-75
2022/11/07 08:31:33;;;;;;;6.87;3.07;;;14.60;1.00;;;;;;5045853;28;20180;-77
2022/11/07 08:33:59;;;;;;;5.53;1.90;;;14.60;1.00;;;;;;5039967;28;20224;-77
2022/11/07 08:36:28;;;;;;;8.43;2.90;;;14.40;1.00;;;;;;5045631;28;20239;-75
2022/11/07 08:38:54;;;;;;;5.13;2.07;;;14.30;1.00;;;;;;5039886;28;20421;-76
2022/11/07 08:41:20;;;;;;;4.93;1.90;;;14.20;1.00;;;;;;5031374;28;20548;-76
2022/11/07 08:43:47;;;;;;;5.87;2.67;;;14.10;1.00;;;;;;5037833;28;21032;-76
2022/11/07 08:46:13;;;;;;;7.00;2.20;;;14.20;1.00;;;;;;5042317;28;20302;-76
2022/11/07 08:48:39;;;;;;;7.33;2.30;;;14.20;1.00;;;;;;5043762;28;20558;-77
2022/11/07 08:51:05;;;;;;;6.40;2.33;;;14.30;1.00;;;;;;5040075;28;20181;-76
2022/11/07 08:53:31;;;;;;;4.23;2.00;;;14.40;1.00;;;;;;5045219;28;20448;-75
2022/11/07 08:56:03;;;;;;;6.03;2.47;;;14.40;1.00;;;;;;5039239;28;20192;-76
2022/11/07 08:58:29;;;;;;;6.50;2.00;;;14.40;1.00;;;;;;5042873;28;20968;-76
2022/11/07 09:00:54;;;;;;;6.43;2.10;;;14.40;1.00;;;;;;5043922;28;20463;-76
2022/11/07 09:03:20;;;;;;;8.10;2.30;;;14.60;1.00;;;;;;5043850;28;20197;-76
2022/11/07 09:05:45;;;;;;;7.03;2.40;;;14.70;1.00;;;;;;5039965;28;20169;-76
2022/11/07 09:08:11;;;;;;;9.57;2.90;;;14.70;1.00;;;;;;5031995;28;20701;-77
2022/11/07 09:10:37;;;;;;;6.93;2.30;;;14.90;1.00;;;;;;5033086;28;20176;-76
2022/11/07 09:13:02;;;;;;;8.97;2.70;;;14.70;1.00;;;;;;5049503;28;20192;-76
2022/11/07 09:15:28;;;;;;;4.83;2.43;;;14.70;1.00;;;;;;5047621;28;20180;-76
2022/11/07 09:17:53;;;;;;;4.87;2.10;;;14.60;1.00;;;;;;5038669;28;20302;-76
2022/11/07 09:20:19;;;;;;;6.03;2.40;;;14.60;1.00;;;;;;5046602;28;20193;-76
2022/11/07 09:22:45;;;;;;;12.20;3.27;;;14.60;1.00;;;;;;5045420;28;20280;-76
2022/11/07 09:25:10;;;;;;;3.07;2.10;;;14.70;1.00;;;;;;5029794;28;20185;-76
2022/11/07 09:27:36;;;;;;;160.83;14.60;;;14.80;1.00;;;;;;5042740;28;20565;-76
2022/11/07 09:30:03;;;;;;;6.20;3.13;;;15.00;1.00;;;;;;5036284;28;20186;-76
2022/11/07 09:32:29;;;;;;;4.03;2.20;;;15.20;1.00;;;;;;5044835;28;20173;-76
2022/11/07 09:34:54;;;;;;;6.73;2.10;;;15.20;1.00;;;;;;5038543;28;20407;-76
2022/11/07 09:37:20;;;;;;;7.20;2.40;;;15.20;1.00;;;;;;5051191;28;20205;-76
2022/11/07 09:39:46;;;;;;;10.50;2.20;;;15.10;1.00;;;;;;5041558;28;20170;-76
2022/11/07 09:42:12;;;;;;;7.13;2.43;;;14.90;1.00;;;;;;5048146;28;20431;-76
2022/11/07 09:44:56;;;;;;;6.17;2.80;;;14.80;1.00;;;;;;5047040;28;20493;-76
2022/11/07 09:47:38;;;;;;;3.83;1.80;;;14.70;1.00;;;;;;5049699;28;20540;-76
2022/11/07 09:50:33;;;;;;;4.97;2.00;;;14.70;1.00;;;;;;5047103;28;20530;-76
2022/11/07 09:53:13;;;;;;;5.30;2.90;;;14.60;1.00;;;;;;5047240;28;20457;-77
2022/11/07 09:56:08;;;;;;;8.07;2.70;;;14.70;1.00;;;;;;5042316;28;20530;-76
2022/11/07 09:58:39;;;;;;;6.67;4.13;;;14.90;1.00;;;;;;5039003;28;20424;-76
2022/11/07 10:01:10;;;;;;;4.77;2.13;;;15.10;1.00;;;;;;5036353;28;20449;-75
2022/11/07 10:03:37;;;;;;;3.67;2.80;;;15.30;1.00;;;;;;5039679;28;20452;-76
2022/11/07 10:06:27;;;;;;;8.23;2.50;;;15.60;1.00;;;;;;5039707;28;20443;-76
2022/11/07 10:09:33;;;;;;;7.80;3.10;;;15.80;1.00;;;;;;5047104;28;20973;-76
2022/11/07 10:12:30;;;;;;;10.77;2.97;;;15.70;1.00;;;;;;5028397;28;21009;-76
2022/11/07 10:15:11;;;;;;;12.00;3.30;;;15.40;1.00;;;;;;5040628;28;20435;-76
2022/11/07 10:17:52;;;;;;;10.43;3.60;;;15.20;1.00;;;;;;5039711;28;20551;-76
2022/11/07 10:20:34;;;;;;;8.93;3.00;;;15.10;1.00;;;;;;5036959;28;20440;-76
2022/11/07 10:23:40;;;;;;;6.63;2.33;;;15.00;1.00;;;;;;5040834;28;20511;-76
2022/11/07 10:26:15;;;;;;;5.23;1.90;;;15.00;1.00;;;;;;5042064;28;20783;-76
2022/11/07 10:28:51;;;;;;;9.07;2.70;;;15.10;1.00;;;;;;5052194;28;20455;-76
2022/11/07 10:31:17;;;;;;;3.37;2.27;;;15.10;1.00;;;;;;5051767;28;20929;-76
2022/11/07 10:34:08;;;;;;;8.53;3.10;;;15.10;1.00;;;;;;5050506;28;20458;-76
2022/11/07 10:36:33;;;;;;;7.17;2.20;;;15.10;1.00;;;;;;5052581;28;20177;-75
2022/11/07 10:39:00;;;;;;;5.30;2.00;;;15.20;1.00;;;;;;5052285;28;20421;-76
2022/11/07 10:41:28;;;;;;;9.33;2.23;;;15.10;1.00;;;;;;5051245;28;20165;-76
2022/11/07 10:44:13;;;;;;;6.47;2.87;;;15.10;1.00;;;;;;5051989;28;20437;-76
2022/11/07 10:46:42;;;;;;;10.03;4.63;;;15.10;1.00;;;;;;5049560;28;20781;-75
2022/11/07 10:49:26;;;;;;;7.33;2.87;;;15.30;1.00;;;;;;5051538;28;20478;-76
2022/11/07 10:51:53;;;;;;;16.60;3.00;;;15.40;1.00;;;;;;5051605;28;20791;-76
2022/11/07 10:54:29;;;;;;;4.27;2.10;;;15.50;1.00;;;;;;5051731;28;20968;-76
2022/11/07 10:56:55;;;;;;;9.20;2.90;;;15.60;1.00;;;;;;5051541;28;20442;-75
2022/11/07 10:59:25;;;;;;;5.60;3.10;;;16.00;1.00;;;;;;5052206;28;20431;-75
2022/11/07 11:01:53;;;;;;;3.50;2.27;;;16.40;1.00;;;;;;5051878;28;20180;-75
2022/11/07 11:04:23;;;;;;;10.13;2.27;;;16.60;1.00;;;;;;5051357;28;20427;-75
2022/11/07 11:06:57;;;;;;;7.00;3.03;;;16.30;1.00;;;;;;5051540;28;20404;-75
2022/11/07 11:09:28;;;;;;;3.73;2.23;;;17.10;1.00;;;;;;5051485;28;20452;-75
2022/11/07 11:11:53;;;;;;;5.53;2.00;;;16.10;1.00;;;;;;5051316;28;20411;-75
2022/11/07 11:14:20;;;;;;;9.13;3.33;;;16.10;1.00;;;;;;5050066;28;20423;-75
2022/11/07 11:16:50;;;;;;;5.00;2.33;;;16.00;1.00;;;;;;5051731;28;20583;-75
2022/11/07 11:19:25;;;;;;;4.67;2.30;;;16.00;1.00;;;;;;5050557;28;20416;-75
2022/11/07 11:21:53;;;;;;;4.33;1.80;;;16.10;1.00;;;;;;5050753;28;20514;-75
2022/11/07 11:24:31;;;;;;;9.37;2.93;;;16.00;1.00;;;;;;5051383;28;20502;-75
2022/11/07 11:27:17;;;;;;;4.13;2.30;;;16.10;1.00;;;;;;5045526;28;20419;-75
2022/11/07 11:29:47;;;;;;;8.43;3.87;;;16.30;1.00;;;;;;5050941;28;20457;-75
2022/11/07 11:32:34;;;;;;;6.87;2.00;;;16.60;1.00;;;;;;5051006;28;20399;-75
2022/11/07 11:35:03;;;;;;;7.80;2.53;;;16.70;1.00;;;;;;5051109;28;20947;-75
2022/11/07 11:37:33;;;;;;;8.23;2.50;;;16.80;1.00;;;;;;5051026;28;20435;-75
2022/11/07 11:39:59;;;;;;;8.67;1.80;;;16.80;1.00;;;;;;5051008;28;20399;-75
2022/11/07 11:42:33;;;;;;;5.23;1.90;;;16.80;1.00;;;;;;5050429;28;20978;-75
2022/11/07 11:45:08;;;;;;;10.33;3.17;;;16.80;1.00;;;;;;5049704;28;20609;-75
2022/11/07 11:47:39;;;;;;;7.60;3.03;;;17.00;1.00;;;;;;5035119;28;21018;-75
2022/11/07 11:50:18;;;;;;;5.27;2.20;;;17.10;1.00;;;;;;5043841;28;20466;-75
2022/11/07 11:52:44;;;;;;;8.00;3.50;;;17.30;1.00;;;;;;5049629;28;20423;-75
2022/11/07 11:55:16;;;;;;;7.57;2.90;;;17.40;1.00;;;;;;5050728;28;20415;-75
2022/11/07 11:58:10;;;;;;;9.30;3.87;;;17.40;1.00;;;;;;5050947;28;20477;-75
2022/11/07 12:00:43;;;;;;;5.70;2.93;;;18.00;1.00;;;;;;5050940;28;20414;-75
2022/11/07 12:03:20;;;;;;;3.10;1.90;;;18.20;1.00;;;;;;5049796;28;20521;-75
2022/11/07 12:05:58;;;;;;;4.80;2.50;;;17.90;1.00;;;;;;5050782;28;20991;-75
2022/11/07 12:08:42;;;;;;;10.53;2.43;;;18.30;1.00;;;;;;5045170;28;20985;-75
2022/11/07 12:11:39;;;;;;;6.40;2.60;;;19.10;1.00;;;;;;5050379;28;20446;-75
2022/11/07 12:14:07;;;;;;;10.00;4.40;;;21.20;1.00;;;;;;5049088;28;20435;-75
2022/11/07 12:16:53;;;;;;;9.53;3.30;;;22.90;1.00;;;;;;5050716;28;20400;-76
2022/11/07 12:19:28;;;;;;;7.47;2.47;;;24.30;1.00;;;;;;5049783;28;20418;-75
2022/11/07 12:22:12;;;;;;;6.73;2.23;;;24.80;1.00;;;;;;5049848;28;20415;-75
2022/11/07 12:24:53;;;;;;;4.43;2.27;;;23.50;1.00;;;;;;5050365;28;20427;-76
2022/11/07 12:27:36;;;;;;;5.90;2.10;;;23.90;1.00;;;;;;5049822;28;20430;-76
2022/11/07 12:30:24;;;;;;;13.00;2.30;;;23.90;1.00;;;;;;5050133;28;20423;-76
2022/11/07 12:33:25;;;;;;;7.73;2.60;;;22.30;1.00;;;;;;5049506;28;20771;-75
2022/11/07 12:36:00;;;;;;;9.40;3.00;;;21.60;1.00;;;;;;5050221;28;20403;-76
2022/11/07 12:39:11;;;;;;;9.80;2.63;;;23.00;1.00;;;;;;5050051;28;20485;-75
2022/11/07 12:41:53;;;;;;;7.00;1.83;;;22.70;1.00;;;;;;5043690;28;20419;-76
2022/11/07 12:45:01;;;;;;;5.53;2.10;;;21.10;1.00;;;;;;5050314;28;20430;-76
2022/11/07 12:47:35;;;;;;;11.30;2.20;;;20.10;1.00;;;;;;5037183;28;20453;-76
2022/11/07 12:50:12;;;;;;;6.77;2.97;;;19.10;1.00;;;;;;5041872;28;20446;-75
2022/11/07 12:52:58;;;;;;;9.20;2.50;;;18.60;1.00;;;;;;5049604;28;20433;-75
2022/11/07 12:55:27;;;;;;;5.90;2.13;;;18.50;1.00;;;;;;5049719;28;20954;-75
2022/11/07 12:57:54;;;;;;;9.30;3.00;;;18.70;1.00;;;;;;5049990;28;20420;-76
2022/11/07 13:00:38;;;;;;;6.57;2.33;;;18.80;1.00;;;;;;5050018;28;20507;-75
2022/11/07 13:03:37;;;;;;;5.07;2.53;;;18.50;1.00;;;;;;5049119;28;20431;-75
2022/11/07 13:06:30;;;;;;;4.33;2.20;;;18.10;1.00;;;;;;5054210;28;20407;-75
2022/11/07 13:09:06;;;;;;;10.17;2.40;;;17.80;1.00;;;;;;5053789;28;20470;-75
2022/11/07 13:12:05;;;;;;;9.53;2.60;;;20.60;1.00;;;;;;5052027;28;20975;-75
2022/11/07 13:14:35;;;;;;;5.20;2.77;;;18.10;1.00;;;;;;5052709;28;20431;-76
2022/11/07 13:17:09;;;;;;;6.87;2.93;;;18.30;1.00;;;;;;5053999;28;20502;-76